Time;durP1;ratioP1;P1;durP2;ratioP2;P2;SDS_P1;SDS_P2;PMS_P1;PMS_P2;Temp;Humidity;BMP_temperature;BMP_pressure;BME280_temperature;BME280_humidity;BME280_pressure;Samples;Min_cycle;Max_cycle;Signal;HPM_P1;HPM_P2
2023/06/13 00:00:38;;;;;;;;;;;;;;;18.99;63.61;99562.16;5049954;28;20379;-68
2023/06/13 00:03:03;;;;;;;;;;;;;;;18.92;64.50;99568.97;5050552;28;19935;-68
2023/06/13 00:05:28;;;;;;;;;;;;;;;18.90;64.73;99559.25;5049185;28;19983;-68
2023/06/13 00:07:54;;;;;;;;;;;;;;;18.88;64.65;99561.22;5050193;28;19963;-68
2023/06/13 00:10:19;;;;;;;;;;;;;;;18.87;64.96;99564.88;5050688;28;19912;-68
2023/06/13 00:12:46;;;;;;;;;;;;;;;18.85;65.17;99561.44;5032168;28;19923;-68
2023/06/13 00:15:11;;;;;;;;;;;;;;;18.89;65.69;99557.53;5032932;28;19924;-68
2023/06/13 00:17:40;;;;;;;;;;;;;;;18.87;65.71;99564.88;5051073;28;19917;-68
2023/06/13 00:20:06;;;;;;;;;;;;;;;18.78;66.76;99554.78;5032270;28;20454;-67
2023/06/13 00:22:31;;;;;;;;;;;;;;;18.70;66.55;99558.03;5049981;28;19917;-68
2023/06/13 00:24:57;;;;;;;;;;;;;;;18.62;67.46;99551.47;5050194;28;19912;-68
2023/06/13 00:27:23;;;;;;;;;;;;;;;18.64;66.81;99552.22;5049889;28;19924;-68
2023/06/13 00:29:48;;;;;;;;;;;;;;;18.63;67.21;99555.91;5050214;28;19913;-68
2023/06/13 00:32:13;;;;;;;;;;;;;;;18.66;67.33;99561.06;5052904;28;19966;-68
2023/06/13 00:34:39;;;;;;;;;;;;;;;18.65;66.95;99548.56;5035143;28;19998;-67
2023/06/13 00:37:05;;;;;;;;;;;;;;;18.67;66.53;99549.31;5052046;28;19921;-67
2023/06/13 00:39:30;;;;;;;;;;;;;;;18.67;66.66;99555.56;5052403;28;19913;-67
2023/06/13 00:41:55;;;;;;;;;;;;;;;18.66;66.80;99552.97;5050360;28;19963;-68
2023/06/13 00:44:21;;;;;;;;;;;;;;;18.57;66.78;99540.16;5034646;28;19919;-67
2023/06/13 00:46:46;;;;;;;;;;;;;;;18.57;66.39;99541.03;5053021;28;19908;-67
2023/06/13 00:49:13;;;;;;;;;;;;;;;18.58;66.86;99550.00;5052461;28;19920;-67
2023/06/13 00:51:41;;;;;;;;;;;;;;;18.57;66.57;99542.84;5030171;28;19919;-68
2023/06/13 00:54:07;;;;;;;;;;;;;;;18.60;66.90;99548.06;5033132;28;19913;-68
2023/06/13 00:56:34;;;;;;;;;;;;;;;18.57;67.63;99541.03;5033382;28;19936;-68
2023/06/13 00:58:59;;;;;;;;;;;;;;;18.57;66.42;99534.78;5040299;28;19908;-68
2023/06/13 01:01:27;;;;;;;;;;;;;;;18.58;67.02;99536.53;5048143;28;19943;-67
2023/06/13 01:03:52;;;;;;;;;;;;;;;18.61;66.80;99541.69;5052425;28;19935;-68
2023/06/13 01:06:18;;;;;;;;;;;;;;;18.63;66.92;99529.84;5052219;28;19920;-68
2023/06/13 01:08:44;;;;;;;;;;;;;;;18.61;66.18;99541.69;5052187;28;19912;-68
2023/06/13 01:11:10;;;;;;;;;;;;;;;18.60;65.81;99529.19;5051236;28;19913;-67
2023/06/13 01:13:47;;;;;;;;;;;;;;;18.58;65.76;99537.38;5051962;28;20402;-69
2023/06/13 01:16:21;;;;;;;;;;;;;;;18.57;65.95;99534.78;5053041;28;19916;-68
2023/06/13 01:18:49;;;;;;;;;;;;;;;18.53;65.89;99533.28;5034417;28;19955;-68
2023/06/13 01:21:16;;;;;;;;;;;;;;;18.47;66.22;99542.66;5052564;28;19912;-68
2023/06/13 01:23:52;;;;;;;;;;;;;;;18.47;66.37;99528.38;5052639;28;19931;-68
2023/06/13 01:26:21;;;;;;;;;;;;;;;18.45;66.54;99541.06;5052720;28;19939;-68
2023/06/13 01:28:51;;;;;;;;;;;;;;;18.38;66.49;99536.06;5050759;28;19966;-68
2023/06/13 01:31:19;;;;;;;;;;;;;;;18.34;66.79;99523.81;5051706;28;19909;-67
2023/06/13 01:33:45;;;;;;;;;;;;;;;18.30;67.09;99524.16;5051207;28;19912;-67
2023/06/13 01:36:11;;;;;;;;;;;;;;;18.23;67.53;99515.66;5051384;28;19921;-67
2023/06/13 01:38:36;;;;;;;;;;;;;;;18.18;67.73;99527.72;5032696;28;19923;-67
2023/06/13 01:41:02;;;;;;;;;;;;;;;18.15;67.71;99518.00;5033678;28;19917;-68
2023/06/13 01:43:28;;;;;;;;;;;;;;;18.13;67.79;99514.59;5053088;28;19921;-68
2023/06/13 01:45:59;;;;;;;;;;;;;;;18.11;67.54;99523.72;5053037;28;20038;-68
2023/06/13 01:48:30;;;;;;;;;;;;;;;18.03;67.47;99513.53;5053573;28;20361;-68
2023/06/13 01:51:05;;;;;;;;;;;;;;;18.07;67.15;99519.56;5052540;28;20299;-68
2023/06/13 01:53:42;;;;;;;;;;;;;;;17.92;66.61;99526.84;5053406;28;20074;-68
2023/06/13 01:56:11;;;;;;;;;;;;;;;17.94;66.32;99530.31;5052747;28;20015;-68
2023/06/13 01:58:43;;;;;;;;;;;;;;;17.92;66.43;99532.22;5052368;28;19965;-68
2023/06/13 02:01:09;;;;;;;;;;;;;;;17.90;66.50;99523.44;5050936;28;19928;-68
2023/06/13 02:03:34;;;;;;;;;;;;;;;17.89;66.39;99524.38;5052453;28;20308;-68
2023/06/13 02:06:00;;;;;;;;;;;;;;;17.85;65.82;99517.50;5049725;28;19924;-68
2023/06/13 02:08:26;;;;;;;;;;;;;;;17.80;66.53;99514.28;5034724;28;19971;-68
2023/06/13 02:10:52;;;;;;;;;;;;;;;17.76;66.76;99510.06;5052691;28;19913;-68
2023/06/13 02:13:17;;;;;;;;;;;;;;;17.76;66.67;99512.75;5051125;28;20367;-67
2023/06/13 02:15:42;;;;;;;;;;;;;;;17.69;67.28;99516.00;5052176;28;19917;-67
2023/06/13 02:18:09;;;;;;;;;;;;;;;17.69;66.74;99516.00;5051538;28;19913;-67
2023/06/13 02:20:34;;;;;;;;;;;;;;;17.66;67.07;99513.53;5051075;28;20461;-67
2023/06/13 02:23:02;;;;;;;;;;;;;;;17.60;66.51;99512.09;5051174;28;19991;-67
2023/06/13 02:25:27;;;;;;;;;;;;;;;17.60;66.73;99514.78;5051252;28;20474;-68
2023/06/13 02:27:53;;;;;;;;;;;;;;;17.66;66.04;99508.13;5050311;28;19916;-68
2023/06/13 02:30:18;;;;;;;;;;;;;;;17.64;66.13;99516.31;5032698;28;19917;-67
2023/06/13 02:32:46;;;;;;;;;;;;;;;17.60;66.15;99511.22;5049813;28;19967;-67
2023/06/13 02:35:12;;;;;;;;;;;;;;;17.60;66.15;99517.47;5032423;28;19982;-68
2023/06/13 02:37:37;;;;;;;;;;;;;;;17.57;66.29;99515.00;5050651;28;19916;-67
2023/06/13 02:40:07;;;;;;;;;;;;;;;17.53;66.62;99513.50;5049246;28;19916;-68
2023/06/13 02:42:33;;;;;;;;;;;;;;;17.50;66.25;99513.69;5050872;28;19912;-68
2023/06/13 02:44:58;;;;;;;;;;;;;;;17.49;66.67;99514.69;5050194;28;19917;-66
2023/06/13 02:47:23;;;;;;;;;;;;;;;17.51;66.58;99511.88;5049351;28;20414;-67
2023/06/13 02:49:49;;;;;;;;;;;;;;;17.52;66.18;99514.47;5050326;28;20276;-67
2023/06/13 02:52:14;;;;;;;;;;;;;;;17.49;66.75;99517.38;5050467;28;19913;-67
2023/06/13 02:54:40;;;;;;;;;;;;;;;17.45;66.58;99513.16;5030861;28;19917;-67
2023/06/13 02:57:06;;;;;;;;;;;;;;;17.41;66.67;99511.63;5050807;28;19923;-68
2023/06/13 02:59:32;;;;;;;;;;;;;;;17.40;66.80;99512.56;5051554;28;19921;-69
2023/06/13 03:01:57;;;;;;;;;;;;;;;17.34;66.84;99517.50;5050993;28;19913;-68
2023/06/13 03:04:23;;;;;;;;;;;;;;;17.28;67.60;99508.03;5050062;28;19923;-68
2023/06/13 03:06:50;;;;;;;;;;;;;;;17.22;68.00;99513.81;5026240;28;19913;-68
2023/06/13 03:09:15;;;;;;;;;;;;;;;17.18;68.32;99515.00;5050071;28;19995;-68
2023/06/13 03:11:41;;;;;;;;;;;;;;;17.17;68.40;99523.16;5051170;28;19999;-68
2023/06/13 03:14:06;;;;;;;;;;;;;;;17.15;68.49;99517.88;5051155;28;19916;-68
2023/06/13 03:16:32;;;;;;;;;;;;;;;17.12;68.83;99522.63;5050858;28;19919;-68
2023/06/13 03:18:57;;;;;;;;;;;;;;;17.08;69.32;99527.34;5049497;28;19924;-67
2023/06/13 03:21:23;;;;;;;;;;;;;;;17.04;69.80;99541.94;5050209;28;19913;-67
2023/06/13 03:23:48;;;;;;;;;;;;;;;16.98;69.57;99543.19;5050820;28;19958;-67
2023/06/13 03:26:16;;;;;;;;;;;;;;;16.97;70.08;99545.97;5050037;28;20287;-67
2023/06/13 03:28:42;;;;;;;;;;;;;;;16.97;69.71;99546.84;5049220;28;19918;-67
2023/06/13 03:31:07;;;;;;;;;;;;;;;16.91;70.25;99549.06;5050716;28;20023;-65
2023/06/13 03:33:32;;;;;;;;;;;;;;;16.84;69.72;99553.13;5043003;28;19917;-67
2023/06/13 03:35:57;;;;;;;;;;;;;;;16.85;70.13;99554.88;5035760;28;20387;-67
2023/06/13 03:38:23;;;;;;;;;;;;;;;16.84;70.52;99561.19;5049460;28;19909;-68
2023/06/13 03:40:48;;;;;;;;;;;;;;;16.85;70.47;99557.56;5033354;28;20372;-67
2023/06/13 03:43:13;;;;;;;;;;;;;;;16.84;70.19;99556.69;5052658;28;19909;-68
2023/06/13 03:45:39;;;;;;;;;;;;;;;16.84;69.97;99561.19;5050823;28;19932;-67
2023/06/13 03:48:04;;;;;;;;;;;;;;;16.84;69.88;99561.19;5050543;28;19916;-67
2023/06/13 03:50:29;;;;;;;;;;;;;;;16.84;70.09;99563.88;5050591;28;19967;-68
2023/06/13 03:52:55;;;;;;;;;;;;;;;16.85;70.25;99570.97;5050814;28;19936;-68
2023/06/13 03:55:23;;;;;;;;;;;;;;;16.84;70.14;99566.56;5050185;28;20376;-68
2023/06/13 03:57:49;;;;;;;;;;;;;;;16.87;69.71;99571.72;5033575;28;19920;-67
2023/06/13 04:00:15;;;;;;;;;;;;;;;16.87;70.63;99572.59;5050539;28;19920;-68
2023/06/13 04:02:40;;;;;;;;;;;;;;;16.88;70.69;99573.47;5049605;28;19916;-67
2023/06/13 04:05:07;;;;;;;;;;;;;;;16.89;70.30;99567.13;5051505;28;19913;-67
2023/06/13 04:07:33;;;;;;;;;;;;;;;16.92;70.42;99572.28;5052910;28;19908;-68
2023/06/13 04:09:59;;;;;;;;;;;;;;;16.96;70.42;99579.19;5052178;28;20053;-67
2023/06/13 04:12:24;;;;;;;;;;;;;;;17.01;70.59;99582.44;5053858;28;19991;-66
2023/06/13 04:14:49;;;;;;;;;;;;;;;17.02;70.49;99586.84;5034923;28;20371;-67
2023/06/13 04:17:15;;;;;;;;;;;;;;;17.03;70.31;99583.22;5053432;28;19917;-67
2023/06/13 04:19:40;;;;;;;;;;;;;;;17.01;70.76;99593.19;5052934;28;19965;-67
2023/06/13 04:22:05;;;;;;;;;;;;;;;17.00;70.67;99589.63;5053442;28;19940;-67
2023/06/13 04:24:31;;;;;;;;;;;;;;;17.04;70.91;99598.34;5052452;28;20232;-67
2023/06/13 04:26:56;;;;;;;;;;;;;;;17.06;71.55;99602.69;5035066;28;20357;-67
2023/06/13 04:29:25;;;;;;;;;;;;;;;17.08;71.84;99607.97;5052538;28;19919;-67
2023/06/13 04:31:50;;;;;;;;;;;;;;;17.12;71.72;99604.09;5051925;28;19955;-67
2023/06/13 04:34:18;;;;;;;;;;;;;;;17.16;72.13;99605.63;5052709;28;19947;-67
2023/06/13 04:36:44;;;;;;;;;;;;;;;17.24;71.24;99608.66;5051918;28;19921;-67
2023/06/13 04:39:09;;;;;;;;;;;;;;;17.31;71.27;99614.50;5052416;28;19971;-68
2023/06/13 04:41:37;;;;;;;;;;;;;;;17.39;71.46;99622.91;5053129;28;19912;-67
2023/06/13 04:44:04;;;;;;;;;;;;;;;17.48;71.62;99625.88;5052829;28;20027;-68
2023/06/13 04:46:30;;;;;;;;;;;;;;;17.57;71.01;99616.34;5035653;28;19912;-67
2023/06/13 04:48:57;;;;;;;;;;;;;;;17.68;70.90;99620.03;5053215;28;19919;-67
2023/06/13 04:51:22;;;;;;;;;;;;;;;17.82;70.42;99624.47;5053667;28;19931;-67
2023/06/13 04:53:49;;;;;;;;;;;;;;;17.92;69.61;99621.03;5035602;28;19909;-67
2023/06/13 04:56:15;;;;;;;;;;;;;;;18.02;69.44;99618.59;5053100;28;19920;-67
2023/06/13 04:58:40;;;;;;;;;;;;;;;18.09;68.33;99609.09;5053864;28;19989;-67
2023/06/13 05:01:07;;;;;;;;;;;;;;;18.20;67.77;99612.78;5052918;28;19920;-67
2023/06/13 05:03:32;;;;;;;;;;;;;;;18.30;67.82;99616.53;5053272;28;19919;-67
2023/06/13 05:05:58;;;;;;;;;;;;;;;18.42;66.80;99620.25;5053069;28;19908;-67
2023/06/13 05:08:24;;;;;;;;;;;;;;;18.54;66.12;99626.59;5051760;28;19913;-67
2023/06/13 05:10:49;;;;;;;;;;;;;;;18.66;66.32;99626.59;5052612;28;19909;-67
2023/06/13 05:13:15;;;;;;;;;;;;;;;18.79;65.73;99623.88;5052794;28;19942;-67
2023/06/13 05:15:44;;;;;;;;;;;;;;;19.10;65.52;99636.84;5035321;28;19980;-67
2023/06/13 05:18:12;;;;;;;;;;;;;;;19.35;63.19;99632.25;5051386;28;20380;-67
2023/06/13 05:20:37;;;;;;;;;;;;;;;19.41;63.17;99644.41;5047344;28;19920;-67
2023/06/13 05:23:03;;;;;;;;;;;;;;;19.45;62.36;99637.81;5033600;28;19912;-66
2023/06/13 05:25:29;;;;;;;;;;;;;;;19.49;61.24;99632.06;5042189;28;20425;-66
2023/06/13 05:27:55;;;;;;;;;;;;;;;19.59;60.39;99635.81;5040308;28;20241;-66
2023/06/13 05:30:20;;;;;;;;;;;;;;;19.70;60.53;99642.25;5038108;28;19920;-66
2023/06/13 05:32:46;;;;;;;;;;;;;;;19.81;59.81;99635.03;5034640;28;19919;-66
2023/06/13 05:35:11;;;;;;;;;;;;;;;19.96;60.51;99639.28;5051176;28;20411;-67
2023/06/13 05:37:37;;;;;;;;;;;;;;;20.08;61.33;99638.31;5044992;28;20376;-66
2023/06/13 05:40:04;;;;;;;;;;;;;;;20.18;59.53;99636.66;5039841;28;19952;-67
2023/06/13 05:42:29;;;;;;;;;;;;;;;20.30;59.76;99627.59;5048351;28;19935;-67
2023/06/13 05:44:54;;;;;;;;;;;;;;;20.41;59.85;99624.06;5052387;28;19916;-67
2023/06/13 05:47:19;;;;;;;;;;;;;;;20.50;59.13;99631.44;5055950;28;19920;-67
2023/06/13 05:49:45;;;;;;;;;;;;;;;20.63;58.50;99624.94;5059253;28;20342;-67
2023/06/13 05:52:10;;;;;;;;;;;;;;;20.77;58.00;99632.78;5059864;28;19912;-66
2023/06/13 05:54:35;;;;;;;;;;;;;;;20.94;57.10;99629.59;5060322;28;19904;-66
2023/06/13 05:57:01;;;;;;;;;;;;;;;21.11;56.74;99640.91;5059803;28;19925;-67
2023/06/13 05:59:26;;;;;;;;;;;;;;;21.20;54.06;99645.59;5056690;28;19920;-67
2023/06/13 06:01:51;;;;;;;;;;;;;;;21.38;54.94;99634.13;5057698;28;19912;-68
2023/06/13 06:04:17;;;;;;;;;;;;;;;21.54;51.31;99644.50;5058136;28;19924;-68
2023/06/13 06:06:42;;;;;;;;;;;;;;;21.73;52.30;99636.59;5057405;28;19982;-68
2023/06/13 06:09:08;;;;;;;;;;;;;;;21.81;51.64;99634.13;5059145;28;19912;-69
2023/06/13 06:11:35;;;;;;;;;;;;;;;21.97;50.55;99639.94;5039084;28;19912;-68
2023/06/13 06:14:00;;;;;;;;;;;;;;;22.15;51.17;99641.09;5052565;28;19913;-68
2023/06/13 06:16:25;;;;;;;;;;;;;;;22.28;49.59;99630.91;5044815;28;19951;-68
2023/06/13 06:18:51;;;;;;;;;;;;;;;22.42;50.75;99627.84;5040460;28;20027;-69
2023/06/13 06:21:16;;;;;;;;;;;;;;;22.64;50.69;99633.16;5056194;28;19913;-69
2023/06/13 06:23:42;;;;;;;;;;;;;;;22.79;49.84;99630.94;5038167;28;20354;-69
2023/06/13 06:26:08;;;;;;;;;;;;;;;22.92;48.64;99627.00;5035154;28;19917;-69
2023/06/13 06:28:33;;;;;;;;;;;;;;;23.02;47.92;99622.47;5052500;28;19912;-69
2023/06/13 06:31:00;;;;;;;;;;;;;;;23.17;47.90;99621.09;5045162;28;19912;-69
2023/06/13 06:33:25;;;;;;;;;;;;;;;23.31;48.85;99618.00;5034705;28;19955;-68
2023/06/13 06:35:52;;;;;;;;;;;;;;;23.43;47.73;99616.03;5054711;28;19920;-69
2023/06/13 06:38:17;;;;;;;;;;;;;;;23.56;47.54;99613.91;5055520;28;19920;-69
2023/06/13 06:40:43;;;;;;;;;;;;;;;23.68;46.80;99611.91;5055501;28;19979;-69
2023/06/13 06:43:08;;;;;;;;;;;;;;;23.57;40.56;99612.03;5055139;28;20371;-69
2023/06/13 06:45:33;;;;;;;;;;;;;;;23.57;40.53;99606.63;5037925;28;19919;-69
2023/06/13 06:47:59;;;;;;;;;;;;;;;23.73;39.60;99612.34;5038548;28;19916;-69
2023/06/13 06:50:24;;;;;;;;;;;;;;;23.72;38.16;99608.78;5048577;28;19917;-68
2023/06/13 06:52:49;;;;;;;;;;;;;;;23.84;39.65;99601.34;5056917;28;19912;-68
2023/06/13 06:55:15;;;;;;;;;;;;;;;24.10;40.47;99610.66;5057181;28;19912;-68
2023/06/13 06:57:40;;;;;;;;;;;;;;;24.17;38.02;99611.78;5057391;28;20031;-68
2023/06/13 07:00:08;;;;;;;;;;;;;;;24.36;39.65;99617.19;5036721;28;19921;-68
2023/06/13 07:02:33;;;;;;;;;;;;;;;24.58;38.81;99622.25;5049095;28;19928;-69
2023/06/13 07:04:59;;;;;;;;;;;;;;;24.49;37.88;99607.72;5035711;28;19909;-68
2023/06/13 07:07:24;;;;;;;;;;;;;;;24.63;38.52;99609.06;5053647;28;19957;-68
2023/06/13 07:09:49;;;;;;;;;;;;;;;24.69;36.95;99605.81;5054742;28;20280;-68
2023/06/13 07:12:15;;;;;;;;;;;;;;;24.87;37.00;99605.88;5051709;28;19912;-68
2023/06/13 07:14:40;;;;;;;;;;;;;;;25.07;36.76;99602.94;5052746;28;19966;-68
2023/06/13 07:17:05;;;;;;;;;;;;;;;25.26;36.90;99613.69;5034454;28;19913;-68
2023/06/13 07:19:31;;;;;;;;;;;;;;;25.55;36.01;99598.06;5033470;28;20018;-68
2023/06/13 07:21:56;;;;;;;;;;;;;;;25.73;34.31;99596.19;5051829;28;19908;-68
2023/06/13 07:24:21;;;;;;;;;;;;;;;25.80;34.46;99605.47;5051388;28;20035;-68
2023/06/13 07:26:46;;;;;;;;;;;;;;;26.12;34.51;99601.34;5050896;28;19917;-68
2023/06/13 07:29:12;;;;;;;;;;;;;;;25.96;33.38;99602.03;5050069;28;19983;-68
2023/06/13 07:31:37;;;;;;;;;;;;;;;26.06;34.40;99601.97;5050652;28;20004;-68
2023/06/13 07:34:02;;;;;;;;;;;;;;;26.15;32.61;99601.00;5036335;28;19913;-68
2023/06/13 07:36:27;;;;;;;;;;;;;;;26.44;33.82;99591.50;5042585;28;20003;-68
2023/06/13 07:38:53;;;;;;;;;;;;;;;26.71;31.79;99593.25;5046687;28;20456;-68
2023/06/13 07:41:18;;;;;;;;;;;;;;;26.99;33.38;99592.03;5034945;28;19964;-68
2023/06/13 07:43:44;;;;;;;;;;;;;;;27.37;33.04;99586.06;5042096;28;19915;-68
2023/06/13 07:46:09;;;;;;;;;;;;;;;27.48;31.27;99590.38;5039781;28;19932;-68
2023/06/13 07:48:34;;;;;;;;;;;;;;;27.63;30.57;99585.97;5019950;28;19919;-68
2023/06/13 07:50:59;;;;;;;;;;;;;;;27.94;30.68;99587.88;5029883;28;20011;-68
2023/06/13 07:53:25;;;;;;;;;;;;;;;28.21;30.21;99586.69;5054308;28;19920;-68
2023/06/13 07:55:53;;;;;;;;;;;;;;;28.23;29.35;99580.03;5048229;28;19932;-68
2023/06/13 07:58:18;;;;;;;;;;;;;;;28.17;29.57;99586.19;5034504;28;19913;-68
2023/06/13 08:00:43;;;;;;;;;;;;;;;28.09;30.32;99588.91;5053688;28;20589;-68
2023/06/13 08:03:08;;;;;;;;;;;;;;;28.42;29.77;99584.28;5041432;28;19913;-68
2023/06/13 08:05:34;;;;;;;;;;;;;;;28.29;30.08;99573.00;5046850;28;19913;-68
2023/06/13 08:07:59;;;;;;;;;;;;;;;28.55;31.02;99575.56;5046607;28;19909;-68
2023/06/13 08:10:25;;;;;;;;;;;;;;;28.80;30.01;99582.69;5045012;28;19927;-68
2023/06/13 08:12:51;;;;;;;;;;;;;;;28.72;28.02;99569.00;5043808;28;19917;-68
2023/06/13 08:15:16;;;;;;;;;;;;;;;28.70;29.04;99573.81;5037344;28;19912;-68
2023/06/13 08:17:42;;;;;;;;;;;;;;;28.26;28.93;99579.69;5036104;28;19986;-66
2023/06/13 08:20:08;;;;;;;;;;;;;;;28.42;30.91;99579.66;5052634;28;20344;-67
2023/06/13 08:22:33;;;;;;;;;;;;;;;28.66;28.32;99575.19;5048439;28;19920;-66
2023/06/13 08:24:59;;;;;;;;;;;;;;;29.08;28.81;99583.97;5047155;28;19923;-67
2023/06/13 08:27:24;;;;;;;;;;;;;;;29.45;28.98;99578.66;5054592;28;19912;-67
2023/06/13 08:29:51;;;;;;;;;;;;;;;29.75;28.40;99561.38;5033225;28;20526;-67
2023/06/13 08:32:16;;;;;;;;;;;;;;;29.53;27.96;99565.75;5037783;28;19916;-67
2023/06/13 08:34:41;;;;;;;;;;;;;;;29.83;28.90;99561.28;5037679;28;19923;-67
2023/06/13 08:37:07;;;;;;;;;;;;;;;30.21;29.00;99557.53;5046926;28;19920;-67
2023/06/13 08:39:32;;;;;;;;;;;;;;;30.38;27.83;99566.50;5039286;28;19912;-67
2023/06/13 08:41:58;;;;;;;;;;;;;;;30.39;28.12;99560.81;5036401;28;20301;-67
2023/06/13 08:44:25;;;;;;;;;;;;;;;30.19;28.21;99556.88;5036431;28;20003;-67
2023/06/13 08:46:50;;;;;;;;;;;;;;;30.07;27.16;99552.84;5047126;28;19924;-67
2023/06/13 08:49:16;;;;;;;;;;;;;;;29.85;26.91;99556.50;5046083;28;19917;-67
2023/06/13 08:51:41;;;;;;;;;;;;;;;29.88;28.38;99558.84;5033943;28;19988;-67
2023/06/13 08:54:08;;;;;;;;;;;;;;;29.78;28.25;99552.75;5035040;28;19967;-67
2023/06/13 08:56:35;;;;;;;;;;;;;;;30.11;28.66;99553.34;5022517;28;20284;-67
2023/06/13 08:59:19;;;;;;;;;;;;;;;30.51;27.57;99558.47;5034803;28;19915;-67
2023/06/13 09:01:45;;;;;;;;;;;;;;;30.62;27.77;99542.38;5034311;28;20328;-67
2023/06/13 09:04:11;;;;;;;;;;;;;;;30.77;27.08;99550.63;5036808;28;19917;-67
2023/06/13 09:06:37;;;;;;;;;;;;;;;30.84;26.81;99549.69;5039024;28;19938;-67
2023/06/13 09:09:03;;;;;;;;;;;;;;;30.51;27.73;99556.56;5028770;28;19924;-67
2023/06/13 09:11:29;;;;;;;;;;;;;;;30.43;26.98;99551.16;5037563;28;19928;-67
2023/06/13 09:13:55;;;;;;;;;;;;;;;30.58;27.99;99546.53;5043798;28;19924;-66
2023/06/13 09:16:21;;;;;;;;;;;;;;;30.42;27.67;99549.47;5033459;28;19920;-66
2023/06/13 09:18:47;;;;;;;;;;;;;;;30.46;28.48;99550.78;5037282;28;20514;-67
2023/06/13 09:21:13;;;;;;;;;;;;;;;30.85;28.05;99553.31;5039864;28;20063;-67
2023/06/13 09:23:39;;;;;;;;;;;;;;;30.93;26.80;99533.97;5043100;28;20019;-67
2023/06/13 09:26:05;;;;;;;;;;;;;;;30.92;27.45;99542.41;5040252;28;19913;-67
2023/06/13 09:28:32;;;;;;;;;;;;;;;30.61;27.53;99540.66;5040384;28;19923;-67
2023/06/13 09:30:58;;;;;;;;;;;;;;;30.86;27.55;99544.00;5039470;28;19919;-67
2023/06/13 09:33:23;;;;;;;;;;;;;;;30.91;26.43;99536.03;5049074;28;19927;-67
2023/06/13 09:35:50;;;;;;;;;;;;;;;31.22;27.22;99544.06;5036425;28;19928;-67
2023/06/13 09:38:20;;;;;;;;;;;;;;;31.24;26.62;99541.97;5044538;28;19913;-67
2023/06/13 09:40:46;;;;;;;;;;;;;;;31.38;28.00;99535.63;5035293;28;19939;-67
2023/06/13 09:43:12;;;;;;;;;;;;;;;31.25;26.55;99543.69;5034818;28;20372;-67
2023/06/13 09:45:38;;;;;;;;;;;;;;;31.35;27.58;99541.53;5034855;28;20421;-67
2023/06/13 09:48:04;;;;;;;;;;;;;;;31.48;26.81;99539.78;5033494;28;19916;-67
2023/06/13 09:50:30;;;;;;;;;;;;;;;31.57;26.59;99544.09;5040890;28;19913;-67
2023/06/13 09:52:55;;;;;;;;;;;;;;;31.29;26.14;99534.00;5034814;28;20368;-67
2023/06/13 09:55:21;;;;;;;;;;;;;;;30.95;25.93;99534.63;5035116;28;20026;-67
2023/06/13 09:57:50;;;;;;;;;;;;;;;30.99;26.26;99540.59;5033287;28;19913;-67
2023/06/13 10:00:15;;;;;;;;;;;;;;;30.79;26.78;99534.84;5040204;28;19921;-67
2023/06/13 10:02:42;;;;;;;;;;;;;;;30.37;26.76;99535.44;5034528;28;19913;-67
2023/06/13 10:05:08;;;;;;;;;;;;;;;30.30;27.72;99531.75;5032596;28;19909;-67
2023/06/13 10:07:33;;;;;;;;;;;;;;;30.98;28.23;99527.88;5037292;28;19913;-68
2023/06/13 10:10:00;;;;;;;;;;;;;;;31.67;26.79;99519.00;5030791;28;20419;-67
2023/06/13 10:12:25;;;;;;;;;;;;;;;31.64;26.94;99516.66;5044478;28;19921;-67
2023/06/13 10:14:54;;;;;;;;;;;;;;;31.64;26.56;99524.91;5034696;28;20791;-67
2023/06/13 10:17:20;;;;;;;;;;;;;;;31.75;26.24;99524.38;5046284;28;20031;-68
2023/06/13 10:19:48;;;;;;;;;;;;;;;31.77;25.43;99527.78;5041093;28;19923;-68
2023/06/13 10:22:13;;;;;;;;;;;;;;;31.64;24.96;99516.66;5039455;28;19919;-68
2023/06/13 10:24:40;;;;;;;;;;;;;;;31.84;25.54;99513.06;5043182;28;19909;-68
2023/06/13 10:27:08;;;;;;;;;;;;;;;31.61;25.30;99511.56;5022013;28;19913;-68
2023/06/13 10:29:33;;;;;;;;;;;;;;;31.65;25.65;99501.84;5033795;28;19950;-68
2023/06/13 10:32:17;;;;;;;;;;;;;;;31.61;25.69;99508.81;5024712;28;19913;-68
2023/06/13 10:34:42;;;;;;;;;;;;;;;31.85;26.77;99524.91;5032185;28;19916;-68
2023/06/13 10:37:30;;;;;;;;;;;;;;;32.06;26.02;99528.53;5035087;28;20423;-68
2023/06/13 10:40:05;;;;;;;;;;;;;;;32.42;25.60;99511.06;5041123;28;20277;-68
2023/06/13 10:42:37;;;;;;;;;;;;;;;32.32;24.56;99524.28;5031170;28;19966;-68
2023/06/13 10:45:07;;;;;;;;;;;;;;;32.89;24.85;99516.63;5031991;28;19940;-68
2023/06/13 10:47:33;;;;;;;;;;;;;;;33.03;24.13;99508.25;5011858;28;19938;-69
2023/06/13 10:50:01;;;;;;;;;;;;;;;33.02;24.29;99520.34;5032076;28;19946;-68
2023/06/13 10:52:28;;;;;;;;;;;;;;;33.13;24.58;99516.16;5014870;28;20023;-69
2023/06/13 10:54:55;;;;;;;;;;;;;;;32.98;24.65;99518.19;5032957;28;19995;-68
2023/06/13 10:57:21;;;;;;;;;;;;;;;32.75;24.42;99507.44;5033064;28;20364;-68
2023/06/13 10:59:47;;;;;;;;;;;;;;;32.61;24.10;99513.94;5044738;28;19921;-68
2023/06/13 11:02:14;;;;;;;;;;;;;;;32.45;25.35;99511.50;5045315;28;19956;-69
2023/06/13 11:04:40;;;;;;;;;;;;;;;32.68;24.33;99506.56;5038077;28;20024;-69
2023/06/13 11:07:24;;;;;;;;;;;;;;;32.72;24.30;99513.34;5017061;28;20007;-69
2023/06/13 11:10:02;;;;;;;;;;;;;;;32.81;24.13;99494.75;5026452;28;19913;-68
2023/06/13 11:12:28;;;;;;;;;;;;;;;32.94;24.10;99494.84;5033279;28;19916;-69
2023/06/13 11:14:55;;;;;;;;;;;;;;;32.94;23.43;99490.19;5036570;28;19913;-69
2023/06/13 11:17:21;;;;;;;;;;;;;;;33.11;23.57;99490.69;5041013;28;19991;-69
2023/06/13 11:19:46;;;;;;;;;;;;;;;33.16;23.47;99486.22;5038094;28;19913;-71
2023/06/13 11:22:13;;;;;;;;;;;;;;;33.26;24.36;99489.44;5042333;28;19932;-70
2023/06/13 11:24:40;;;;;;;;;;;;;;;32.98;23.27;99476.84;5043456;28;20236;-70
2023/06/13 11:27:06;;;;;;;;;;;;;;;33.36;24.20;99473.34;5031776;28;19913;-70
2023/06/13 11:29:32;;;;;;;;;;;;;;;33.26;23.66;99472.06;5029919;28;19921;-70
2023/06/13 11:32:00;;;;;;;;;;;;;;;33.45;24.56;99478.72;5032530;28;19916;-69
2023/06/13 11:34:28;;;;;;;;;;;;;;;33.18;23.69;99486.88;5034377;28;19939;-69
2023/06/13 11:36:57;;;;;;;;;;;;;;;33.48;23.25;99486.59;5037773;28;19924;-69
2023/06/13 11:39:22;;;;;;;;;;;;;;;33.28;24.17;99475.44;5033536;28;20448;-69
2023/06/13 11:41:48;;;;;;;;;;;;;;;33.30;23.80;99473.34;5027029;28;19927;-69
2023/06/13 11:44:13;;;;;;;;;;;;;;;33.57;24.34;99468.78;5028912;28;19912;-69
2023/06/13 11:46:43;;;;;;;;;;;;;;;33.76;22.81;99465.16;5030492;28;19958;-69
2023/06/13 11:49:11;;;;;;;;;;;;;;;34.04;23.81;99457.56;5038441;28;20672;-69
2023/06/13 11:51:37;;;;;;;;;;;;;;;34.18;23.32;99471.16;5039278;28;19944;-70
2023/06/13 11:54:02;;;;;;;;;;;;;;;33.66;22.41;99478.56;5033194;28;20320;-68
2023/06/13 11:56:28;;;;;;;;;;;;;;;33.71;23.87;99462.22;5037653;28;20015;-70
2023/06/13 11:58:55;;;;;;;;;;;;;;;33.52;23.37;99466.66;5033156;28;19920;-70
2023/06/13 12:01:24;;;;;;;;;;;;;;;33.92;22.59;99451.00;5029928;28;19921;-68
2023/06/13 12:03:49;;;;;;;;;;;;;;;34.19;22.12;99458.19;5032220;28;19913;-68
2023/06/13 12:06:15;;;;;;;;;;;;;;;34.10;21.70;99453.97;5041444;28;19971;-68
2023/06/13 12:08:41;;;;;;;;;;;;;;;33.78;21.97;99460.28;5041639;28;19912;-68
2023/06/13 12:11:08;;;;;;;;;;;;;;;34.18;22.31;99457.38;5043935;28;19920;-68
2023/06/13 12:13:34;;;;;;;;;;;;;;;33.96;22.71;99463.31;5034532;28;19997;-68
2023/06/13 12:15:59;;;;;;;;;;;;;;;34.02;22.03;99448.66;5031428;28;19948;-68
2023/06/13 12:18:25;;;;;;;;;;;;;;;33.83;22.97;99452.22;5038747;28;19913;-68
2023/06/13 12:20:51;;;;;;;;;;;;;;;33.86;23.06;99455.44;5030143;28;19909;-68
2023/06/13 12:23:20;;;;;;;;;;;;;;;34.25;22.52;99451.84;5029184;28;20363;-69
2023/06/13 12:25:46;;;;;;;;;;;;;;;34.38;22.30;99451.81;5041632;28;19909;-68
2023/06/13 12:28:15;;;;;;;;;;;;;;;34.42;22.74;99447.56;5037143;28;20296;-68
2023/06/13 12:30:41;;;;;;;;;;;;;;;34.40;22.49;99441.38;5034019;28;19967;-68
2023/06/13 12:33:07;;;;;;;;;;;;;;;34.64;21.44;99445.38;5033747;28;19919;-68
2023/06/13 12:35:32;;;;;;;;;;;;;;;34.59;22.70;99432.22;5030697;28;19917;-68
2023/06/13 12:37:59;;;;;;;;;;;;;;;35.03;22.28;99440.56;5039688;28;19923;-68
2023/06/13 12:40:34;;;;;;;;;;;;;;;35.10;22.24;99427.56;5041138;28;19920;-68
2023/06/13 12:43:01;;;;;;;;;;;;;;;35.05;20.66;99423.75;5036668;28;19939;-68